Terminal Aerodrome Forecast
Issued by NWS Jackson, MS

Home | Current Version | Previous Version | Text Only | Print | Product List | Glossary On
Versions: 1 2 3 4 5 6 7 8 9 10 11 12 13 14 15 16 17 18 19 20 21 22 23
187
FTUS44 KMEG 161733
TAFTUP
TAF
KTUP 161733Z 1618/1718 16010G20KT P6SM VCSH BKN035 BKN070
     FM170000 18010KT P6SM VCSH BKN040 OVC070
     FM170900 20010KT P6SM VCTS BKN008 OVC025CB
     FM171500 22006KT 5SM -SHRA VCTS BKN005 OVC020CB=

USA.gov is the U.S. government's official web portal to all federal, state and local government web resources and services.